sensor_id;sensor_type;location;lat;lon;timestamp;P1;durP1;ratioP1;P2;durP2;ratioP2
22078;SDS011;11206;57.696;11.944;2022-07-09T00:00:43;10.23;;;1.08;;
22078;SDS011;11206;57.696;11.944;2022-07-09T00:03:09;5.10;;;1.30;;
22078;SDS011;11206;57.696;11.944;2022-07-09T00:05:35;10.13;;;0.98;;
22078;SDS011;11206;57.696;11.944;2022-07-09T00:08:01;7.93;;;1.20;;
22078;SDS011;11206;57.696;11.944;2022-07-09T00:10:28;8.65;;;0.95;;
22078;SDS011;11206;57.696;11.944;2022-07-09T00:12:54;9.05;;;1.13;;
22078;SDS011;11206;57.696;11.944;2022-07-09T00:15:20;3.90;;;0.70;;
22078;SDS011;11206;57.696;11.944;2022-07-09T00:17:46;13.27;;;1.20;;
22078;SDS011;11206;57.696;11.944;2022-07-09T00:20:12;4.35;;;0.52;;
22078;SDS011;11206;57.696;11.944;2022-07-09T00:22:38;3.38;;;0.85;;
22078;SDS011;11206;57.696;11.944;2022-07-09T00:25:04;6.30;;;1.15;;
22078;SDS011;11206;57.696;11.944;2022-07-09T00:27:30;9.13;;;1.25;;
22078;SDS011;11206;57.696;11.944;2022-07-09T00:29:56;19.35;;;1.13;;
22078;SDS011;11206;57.696;11.944;2022-07-09T00:32:22;8.70;;;0.88;;
22078;SDS011;11206;57.696;11.944;2022-07-09T00:34:48;4.18;;;0.80;;
22078;SDS011;11206;57.696;11.944;2022-07-09T00:37:14;4.95;;;0.63;;
22078;SDS011;11206;57.696;11.944;2022-07-09T00:39:40;4.35;;;1.13;;
22078;SDS011;11206;57.696;11.944;2022-07-09T00:42:07;8.52;;;0.80;;
22078;SDS011;11206;57.696;11.944;2022-07-09T00:44:35;12.93;;;1.13;;
22078;SDS011;11206;57.696;11.944;2022-07-09T00:47:02;12.60;;;1.17;;
22078;SDS011;11206;57.696;11.944;2022-07-09T00:49:29;9.77;;;1.02;;
22078;SDS011;11206;57.696;11.944;2022-07-09T00:51:56;7.63;;;0.70;;
22078;SDS011;11206;57.696;11.944;2022-07-09T00:54:23;6.43;;;0.63;;
22078;SDS011;11206;57.696;11.944;2022-07-09T00:56:49;8.30;;;1.38;;
22078;SDS011;11206;57.696;11.944;2022-07-09T00:59:15;6.10;;;0.60;;
22078;SDS011;11206;57.696;11.944;2022-07-09T01:01:42;4.43;;;0.70;;
22078;SDS011;11206;57.696;11.944;2022-07-09T01:04:08;7.75;;;0.60;;
22078;SDS011;11206;57.696;11.944;2022-07-09T01:06:34;4.30;;;0.70;;
22078;SDS011;11206;57.696;11.944;2022-07-09T01:09:03;4.38;;;0.50;;
22078;SDS011;11206;57.696;11.944;2022-07-09T01:11:30;8.63;;;1.00;;
22078;SDS011;11206;57.696;11.944;2022-07-09T01:13:56;2.95;;;0.60;;
22078;SDS011;11206;57.696;11.944;2022-07-09T01:16:29;3.75;;;0.70;;
22078;SDS011;11206;57.696;11.944;2022-07-09T01:18:55;7.68;;;0.93;;
22078;SDS011;11206;57.696;11.944;2022-07-09T01:21:21;2.67;;;0.50;;
22078;SDS011;11206;57.696;11.944;2022-07-09T01:23:48;5.68;;;0.77;;
22078;SDS011;11206;57.696;11.944;2022-07-09T01:26:14;5.93;;;0.60;;
22078;SDS011;11206;57.696;11.944;2022-07-09T01:28:41;2.05;;;0.63;;
22078;SDS011;11206;57.696;11.944;2022-07-09T01:31:07;3.90;;;0.70;;
22078;SDS011;11206;57.696;11.944;2022-07-09T01:33:33;1.98;;;0.40;;
22078;SDS011;11206;57.696;11.944;2022-07-09T01:35:59;8.40;;;0.60;;
22078;SDS011;11206;57.696;11.944;2022-07-09T01:38:25;6.32;;;0.80;;
22078;SDS011;11206;57.696;11.944;2022-07-09T01:40:51;4.10;;;0.80;;
22078;SDS011;11206;57.696;11.944;2022-07-09T01:43:18;5.68;;;0.77;;
22078;SDS011;11206;57.696;11.944;2022-07-09T01:45:44;6.00;;;1.00;;
22078;SDS011;11206;57.696;11.944;2022-07-09T01:48:10;7.18;;;0.50;;
22078;SDS011;11206;57.696;11.944;2022-07-09T01:50:36;4.28;;;0.82;;
22078;SDS011;11206;57.696;11.944;2022-07-09T01:53:02;7.45;;;1.10;;
22078;SDS011;11206;57.696;11.944;2022-07-09T01:55:28;3.50;;;0.60;;
22078;SDS011;11206;57.696;11.944;2022-07-09T01:57:54;5.97;;;0.70;;
22078;SDS011;11206;57.696;11.944;2022-07-09T02:00:20;4.07;;;0.65;;
22078;SDS011;11206;57.696;11.944;2022-07-09T02:02:46;1.50;;;0.63;;
22078;SDS011;11206;57.696;11.944;2022-07-09T02:05:12;7.47;;;0.63;;
22078;SDS011;11206;57.696;11.944;2022-07-09T02:07:38;4.22;;;0.38;;
22078;SDS011;11206;57.696;11.944;2022-07-09T02:10:05;6.10;;;0.38;;
22078;SDS011;11206;57.696;11.944;2022-07-09T02:12:31;5.30;;;0.55;;
22078;SDS011;11206;57.696;11.944;2022-07-09T02:14:57;4.38;;;0.60;;
22078;SDS011;11206;57.696;11.944;2022-07-09T02:17:23;7.38;;;0.40;;
22078;SDS011;11206;57.696;11.944;2022-07-09T02:19:49;3.13;;;0.40;;
22078;SDS011;11206;57.696;11.944;2022-07-09T02:22:15;4.05;;;0.88;;
22078;SDS011;11206;57.696;11.944;2022-07-09T02:24:41;1.60;;;0.25;;
22078;SDS011;11206;57.696;11.944;2022-07-09T02:27:07;3.78;;;0.73;;
22078;SDS011;11206;57.696;11.944;2022-07-09T02:29:34;6.63;;;0.63;;
22078;SDS011;11206;57.696;11.944;2022-07-09T02:32:00;4.18;;;0.38;;
22078;SDS011;11206;57.696;11.944;2022-07-09T02:34:26;5.70;;;0.68;;
22078;SDS011;11206;57.696;11.944;2022-07-09T02:36:52;6.30;;;0.32;;
22078;SDS011;11206;57.696;11.944;2022-07-09T02:39:18;4.10;;;0.70;;
22078;SDS011;11206;57.696;11.944;2022-07-09T02:41:44;9.18;;;0.35;;
22078;SDS011;11206;57.696;11.944;2022-07-09T02:44:10;2.40;;;0.38;;
22078;SDS011;11206;57.696;11.944;2022-07-09T02:46:36;7.68;;;0.73;;
22078;SDS011;11206;57.696;11.944;2022-07-09T02:49:02;1.38;;;0.45;;
22078;SDS011;11206;57.696;11.944;2022-07-09T02:51:29;10.48;;;0.93;;
22078;SDS011;11206;57.696;11.944;2022-07-09T02:53:55;2.20;;;0.50;;
22078;SDS011;11206;57.696;11.944;2022-07-09T02:56:21;4.95;;;0.73;;
22078;SDS011;11206;57.696;11.944;2022-07-09T02:58:47;2.95;;;0.28;;
22078;SDS011;11206;57.696;11.944;2022-07-09T03:01:13;2.08;;;0.50;;
22078;SDS011;11206;57.696;11.944;2022-07-09T03:03:39;3.83;;;0.32;;
22078;SDS011;11206;57.696;11.944;2022-07-09T03:06:05;2.67;;;0.28;;
22078;SDS011;11206;57.696;11.944;2022-07-09T03:08:34;1.45;;;0.17;;
22078;SDS011;11206;57.696;11.944;2022-07-09T03:11:00;2.17;;;0.30;;
22078;SDS011;11206;57.696;11.944;2022-07-09T03:13:26;5.47;;;0.55;;
22078;SDS011;11206;57.696;11.944;2022-07-09T03:15:52;5.57;;;0.32;;
22078;SDS011;11206;57.696;11.944;2022-07-09T03:18:18;0.93;;;0.20;;
22078;SDS011;11206;57.696;11.944;2022-07-09T03:20:44;3.90;;;0.40;;
22078;SDS011;11206;57.696;11.944;2022-07-09T03:23:10;1.95;;;0.25;;
22078;SDS011;11206;57.696;11.944;2022-07-09T03:25:38;5.28;;;0.52;;
22078;SDS011;11206;57.696;11.944;2022-07-09T03:28:04;7.97;;;0.73;;
22078;SDS011;11206;57.696;11.944;2022-07-09T03:30:30;0.88;;;0.32;;
22078;SDS011;11206;57.696;11.944;2022-07-09T03:32:56;9.32;;;0.60;;
22078;SDS011;11206;57.696;11.944;2022-07-09T03:35:22;6.18;;;0.50;;
22078;SDS011;11206;57.696;11.944;2022-07-09T03:37:50;5.68;;;0.52;;
22078;SDS011;11206;57.696;11.944;2022-07-09T03:40:16;2.47;;;0.43;;
22078;SDS011;11206;57.696;11.944;2022-07-09T03:42:42;5.78;;;0.85;;
22078;SDS011;11206;57.696;11.944;2022-07-09T03:45:08;0.75;;;0.20;;
22078;SDS011;11206;57.696;11.944;2022-07-09T03:47:34;7.38;;;0.77;;
22078;SDS011;11206;57.696;11.944;2022-07-09T03:50:00;7.47;;;0.55;;
22078;SDS011;11206;57.696;11.944;2022-07-09T03:52:26;4.40;;;0.45;;
22078;SDS011;11206;57.696;11.944;2022-07-09T03:54:52;3.05;;;0.40;;
22078;SDS011;11206;57.696;11.944;2022-07-09T03:57:18;6.47;;;0.50;;
22078;SDS011;11206;57.696;11.944;2022-07-09T03:59:45;4.43;;;0.80;;
22078;SDS011;11206;57.696;11.944;2022-07-09T04:02:11;8.85;;;0.77;;
22078;SDS011;11206;57.696;11.944;2022-07-09T04:04:37;3.72;;;0.40;;
22078;SDS011;11206;57.696;11.944;2022-07-09T04:07:03;0.85;;;0.10;;
22078;SDS011;11206;57.696;11.944;2022-07-09T04:09:30;8.40;;;0.52;;
22078;SDS011;11206;57.696;11.944;2022-07-09T04:11:56;5.47;;;0.82;;
22078;SDS011;11206;57.696;11.944;2022-07-09T04:14:22;1.20;;;0.40;;
22078;SDS011;11206;57.696;11.944;2022-07-09T04:16:48;3.15;;;0.55;;
22078;SDS011;11206;57.696;11.944;2022-07-09T04:19:14;2.72;;;0.65;;
22078;SDS011;11206;57.696;11.944;2022-07-09T04:21:40;7.32;;;0.47;;
22078;SDS011;11206;57.696;11.944;2022-07-09T04:24:06;7.80;;;0.50;;
22078;SDS011;11206;57.696;11.944;2022-07-09T04:26:32;4.82;;;0.47;;
22078;SDS011;11206;57.696;11.944;2022-07-09T04:28:58;5.53;;;0.60;;
22078;SDS011;11206;57.696;11.944;2022-07-09T04:31:24;5.68;;;0.43;;
22078;SDS011;11206;57.696;11.944;2022-07-09T04:33:50;13.40;;;0.98;;
22078;SDS011;11206;57.696;11.944;2022-07-09T04:36:16;4.72;;;1.00;;
22078;SDS011;11206;57.696;11.944;2022-07-09T04:38:42;4.72;;;0.40;;
22078;SDS011;11206;57.696;11.944;2022-07-09T04:41:08;5.13;;;0.60;;
22078;SDS011;11206;57.696;11.944;2022-07-09T04:43:35;5.35;;;0.30;;
22078;SDS011;11206;57.696;11.944;2022-07-09T04:46:01;5.15;;;0.28;;
22078;SDS011;11206;57.696;11.944;2022-07-09T04:48:27;3.38;;;0.40;;
22078;SDS011;11206;57.696;11.944;2022-07-09T04:50:55;2.17;;;0.40;;
22078;SDS011;11206;57.696;11.944;2022-07-09T04:53:21;4.22;;;0.55;;
22078;SDS011;11206;57.696;11.944;2022-07-09T04:55:47;1.85;;;0.30;;
22078;SDS011;11206;57.696;11.944;2022-07-09T04:58:13;0.77;;;0.50;;
22078;SDS011;11206;57.696;11.944;2022-07-09T05:00:39;4.43;;;0.40;;
22078;SDS011;11206;57.696;11.944;2022-07-09T05:03:05;2.05;;;0.52;;
22078;SDS011;11206;57.696;11.944;2022-07-09T05:05:31;1.95;;;0.28;;
22078;SDS011;11206;57.696;11.944;2022-07-09T05:07:57;1.55;;;0.32;;
22078;SDS011;11206;57.696;11.944;2022-07-09T05:10:23;7.97;;;0.57;;
22078;SDS011;11206;57.696;11.944;2022-07-09T05:12:50;2.28;;;0.35;;
22078;SDS011;11206;57.696;11.944;2022-07-09T05:15:16;2.28;;;0.45;;
22078;SDS011;11206;57.696;11.944;2022-07-09T05:17:42;2.15;;;0.20;;
22078;SDS011;11206;57.696;11.944;2022-07-09T05:20:09;5.45;;;0.40;;
22078;SDS011;11206;57.696;11.944;2022-07-09T05:22:36;3.50;;;0.82;;
22078;SDS011;11206;57.696;11.944;2022-07-09T05:25:03;2.00;;;0.40;;
22078;SDS011;11206;57.696;11.944;2022-07-09T05:27:29;4.53;;;0.60;;
22078;SDS011;11206;57.696;11.944;2022-07-09T05:29:55;4.28;;;0.15;;
22078;SDS011;11206;57.696;11.944;2022-07-09T05:32:21;0.90;;;0.17;;
22078;SDS011;11206;57.696;11.944;2022-07-09T05:34:47;6.50;;;0.52;;
22078;SDS011;11206;57.696;11.944;2022-07-09T05:37:13;3.95;;;0.70;;
22078;SDS011;11206;57.696;11.944;2022-07-09T05:39:40;5.82;;;0.45;;
22078;SDS011;11206;57.696;11.944;2022-07-09T05:42:06;1.40;;;0.47;;
22078;SDS011;11206;57.696;11.944;2022-07-09T05:44:32;3.05;;;0.40;;
22078;SDS011;11206;57.696;11.944;2022-07-09T05:46:58;5.55;;;0.35;;
22078;SDS011;11206;57.696;11.944;2022-07-09T05:49:24;4.88;;;0.40;;
22078;SDS011;11206;57.696;11.944;2022-07-09T05:51:51;1.77;;;0.30;;
22078;SDS011;11206;57.696;11.944;2022-07-09T05:54:17;4.50;;;0.40;;
22078;SDS011;11206;57.696;11.944;2022-07-09T05:56:43;4.20;;;0.40;;
22078;SDS011;11206;57.696;11.944;2022-07-09T05:59:09;4.20;;;0.45;;
22078;SDS011;11206;57.696;11.944;2022-07-09T06:01:36;5.18;;;0.40;;
22078;SDS011;11206;57.696;11.944;2022-07-09T06:04:05;1.30;;;0.28;;
22078;SDS011;11206;57.696;11.944;2022-07-09T06:09:05;1.27;;;0.40;;
22078;SDS011;11206;57.696;11.944;2022-07-09T06:11:31;2.47;;;0.40;;
22078;SDS011;11206;57.696;11.944;2022-07-09T06:13:57;3.65;;;0.17;;
22078;SDS011;11206;57.696;11.944;2022-07-09T06:16:23;6.35;;;0.40;;
22078;SDS011;11206;57.696;11.944;2022-07-09T06:18:49;3.80;;;0.35;;
22078;SDS011;11206;57.696;11.944;2022-07-09T06:21:15;4.35;;;0.30;;
22078;SDS011;11206;57.696;11.944;2022-07-09T06:23:41;1.40;;;0.28;;
22078;SDS011;11206;57.696;11.944;2022-07-09T06:26:07;5.97;;;0.57;;
22078;SDS011;11206;57.696;11.944;2022-07-09T06:28:37;1.25;;;0.22;;
22078;SDS011;11206;57.696;11.944;2022-07-09T06:31:03;6.25;;;0.73;;
22078;SDS011;11206;57.696;11.944;2022-07-09T06:33:29;2.15;;;0.20;;
22078;SDS011;11206;57.696;11.944;2022-07-09T06:35:55;9.35;;;0.40;;
22078;SDS011;11206;57.696;11.944;2022-07-09T06:38:21;1.95;;;0.30;;
22078;SDS011;11206;57.696;11.944;2022-07-09T06:40:47;1.60;;;0.30;;
22078;SDS011;11206;57.696;11.944;2022-07-09T06:48:38;5.30;;;0.40;;
22078;SDS011;11206;57.696;11.944;2022-07-09T06:51:04;3.90;;;0.50;;
22078;SDS011;11206;57.696;11.944;2022-07-09T06:53:30;0.73;;;0.20;;
22078;SDS011;11206;57.696;11.944;2022-07-09T06:55:56;1.48;;;0.20;;
22078;SDS011;11206;57.696;11.944;2022-07-09T06:58:22;1.95;;;0.35;;
22078;SDS011;11206;57.696;11.944;2022-07-09T07:00:48;3.97;;;0.30;;
22078;SDS011;11206;57.696;11.944;2022-07-09T07:03:14;2.00;;;0.15;;
22078;SDS011;11206;57.696;11.944;2022-07-09T07:05:40;1.15;;;0.30;;
22078;SDS011;11206;57.696;11.944;2022-07-09T07:08:07;0.20;;;0.10;;
22078;SDS011;11206;57.696;11.944;2022-07-09T07:10:33;5.63;;;0.22;;
22078;SDS011;11206;57.696;11.944;2022-07-09T07:12:59;3.70;;;0.30;;
22078;SDS011;11206;57.696;11.944;2022-07-09T07:15:26;1.52;;;0.10;;
22078;SDS011;11206;57.696;11.944;2022-07-09T07:17:52;4.72;;;0.15;;
22078;SDS011;11206;57.696;11.944;2022-07-09T07:20:18;5.32;;;0.50;;
22078;SDS011;11206;57.696;11.944;2022-07-09T07:22:47;4.88;;;0.52;;
22078;SDS011;11206;57.696;11.944;2022-07-09T07:25:14;11.00;;;0.55;;
22078;SDS011;11206;57.696;11.944;2022-07-09T07:27:40;8.48;;;0.52;;
22078;SDS011;11206;57.696;11.944;2022-07-09T07:30:06;3.60;;;0.30;;
22078;SDS011;11206;57.696;11.944;2022-07-09T07:32:32;7.43;;;0.55;;
22078;SDS011;11206;57.696;11.944;2022-07-09T07:34:58;3.38;;;0.30;;
22078;SDS011;11206;57.696;11.944;2022-07-09T07:37:24;2.70;;;0.35;;
22078;SDS011;11206;57.696;11.944;2022-07-09T07:39:50;0.65;;;0.20;;
22078;SDS011;11206;57.696;11.944;2022-07-09T07:42:17;9.65;;;0.65;;
22078;SDS011;11206;57.696;11.944;2022-07-09T07:44:43;9.32;;;0.30;;
22078;SDS011;11206;57.696;11.944;2022-07-09T07:47:09;1.35;;;0.30;;
22078;SDS011;11206;57.696;11.944;2022-07-09T07:49:35;4.05;;;0.20;;
22078;SDS011;11206;57.696;11.944;2022-07-09T07:52:01;1.80;;;0.10;;
22078;SDS011;11206;57.696;11.944;2022-07-09T07:54:28;4.47;;;0.20;;
22078;SDS011;11206;57.696;11.944;2022-07-09T07:56:54;2.30;;;0.15;;
22078;SDS011;11206;57.696;11.944;2022-07-09T07:59:20;1.20;;;0.13;;
22078;SDS011;11206;57.696;11.944;2022-07-09T08:01:46;4.78;;;0.20;;
22078;SDS011;11206;57.696;11.944;2022-07-09T08:04:12;8.40;;;0.38;;
22078;SDS011;11206;57.696;11.944;2022-07-09T08:06:38;4.60;;;0.10;;
22078;SDS011;11206;57.696;11.944;2022-07-09T08:09:04;1.27;;;0.17;;
22078;SDS011;11206;57.696;11.944;2022-07-09T08:11:31;2.10;;;0.10;;
22078;SDS011;11206;57.696;11.944;2022-07-09T08:13:57;1.33;;;0.05;;
22078;SDS011;11206;57.696;11.944;2022-07-09T08:16:24;1.40;;;0.22;;
22078;SDS011;11206;57.696;11.944;2022-07-09T08:18:50;3.38;;;0.22;;
22078;SDS011;11206;57.696;11.944;2022-07-09T08:21:16;1.45;;;0.30;;
22078;SDS011;11206;57.696;11.944;2022-07-09T08:23:42;2.85;;;0.30;;
22078;SDS011;11206;57.696;11.944;2022-07-09T08:26:22;1.25;;;0.17;;
22078;SDS011;11206;57.696;11.944;2022-07-09T08:28:48;6.55;;;0.35;;
22078;SDS011;11206;57.696;11.944;2022-07-09T08:31:15;0.60;;;0.10;;
22078;SDS011;11206;57.696;11.944;2022-07-09T08:33:41;1.67;;;0.28;;
22078;SDS011;11206;57.696;11.944;2022-07-09T08:36:07;2.92;;;0.20;;
22078;SDS011;11206;57.696;11.944;2022-07-09T08:38:34;11.57;;;0.50;;
22078;SDS011;11206;57.696;11.944;2022-07-09T08:41:00;0.50;;;0.13;;
22078;SDS011;11206;57.696;11.944;2022-07-09T08:43:27;7.07;;;0.50;;
22078;SDS011;11206;57.696;11.944;2022-07-09T08:45:53;0.52;;;0.10;;
22078;SDS011;11206;57.696;11.944;2022-07-09T08:48:20;0.30;;;0.10;;
22078;SDS011;11206;57.696;11.944;2022-07-09T08:50:51;1.27;;;0.25;;
22078;SDS011;11206;57.696;11.944;2022-07-09T08:53:18;1.33;;;0.40;;
22078;SDS011;11206;57.696;11.944;2022-07-09T08:55:44;2.15;;;0.30;;
22078;SDS011;11206;57.696;11.944;2022-07-09T08:58:11;4.82;;;0.32;;
22078;SDS011;11206;57.696;11.944;2022-07-09T09:00:38;1.95;;;0.28;;
22078;SDS011;11206;57.696;11.944;2022-07-09T09:03:05;0.45;;;0.20;;
22078;SDS011;11206;57.696;11.944;2022-07-09T09:05:31;0.75;;;0.20;;
22078;SDS011;11206;57.696;11.944;2022-07-09T09:07:58;2.17;;;0.40;;
22078;SDS011;11206;57.696;11.944;2022-07-09T09:10:25;1.20;;;0.38;;
22078;SDS011;11206;57.696;11.944;2022-07-09T09:12:55;2.88;;;0.30;;
22078;SDS011;11206;57.696;11.944;2022-07-09T09:15:22;3.05;;;0.35;;
22078;SDS011;11206;57.696;11.944;2022-07-09T09:17:48;3.20;;;0.20;;
22078;SDS011;11206;57.696;11.944;2022-07-09T09:20:14;6.20;;;0.22;;
22078;SDS011;11206;57.696;11.944;2022-07-09T09:22:47;2.47;;;0.10;;
22078;SDS011;11206;57.696;11.944;2022-07-09T09:25:17;1.05;;;0.30;;
22078;SDS011;11206;57.696;11.944;2022-07-09T09:27:55;5.68;;;0.20;;
22078;SDS011;11206;57.696;11.944;2022-07-09T09:30:21;8.20;;;0.63;;
22078;SDS011;11206;57.696;11.944;2022-07-09T09:33:01;10.13;;;0.20;;
22078;SDS011;11206;57.696;11.944;2022-07-09T09:35:32;3.00;;;0.25;;
22078;SDS011;11206;57.696;11.944;2022-07-09T09:37:59;0.45;;;0.20;;
22078;SDS011;11206;57.696;11.944;2022-07-09T09:40:25;3.20;;;0.70;;
22078;SDS011;11206;57.696;11.944;2022-07-09T09:42:52;2.20;;;0.10;;
22078;SDS011;11206;57.696;11.944;2022-07-09T09:45:20;6.60;;;0.30;;
22078;SDS011;11206;57.696;11.944;2022-07-09T09:47:49;0.63;;;0.22;;
22078;SDS011;11206;57.696;11.944;2022-07-09T09:50:22;3.00;;;0.10;;
22078;SDS011;11206;57.696;11.944;2022-07-09T09:52:52;2.42;;;0.32;;
22078;SDS011;11206;57.696;11.944;2022-07-09T09:55:20;0.40;;;0.10;;
22078;SDS011;11206;57.696;11.944;2022-07-09T09:57:47;7.28;;;0.22;;
22078;SDS011;11206;57.696;11.944;2022-07-09T10:00:14;4.03;;;0.38;;
22078;SDS011;11206;57.696;11.944;2022-07-09T10:02:45;1.65;;;0.25;;
22078;SDS011;11206;57.696;11.944;2022-07-09T10:05:11;1.73;;;0.20;;
22078;SDS011;11206;57.696;11.944;2022-07-09T10:07:39;2.13;;;0.10;;
22078;SDS011;11206;57.696;11.944;2022-07-09T10:10:05;0.63;;;0.20;;
22078;SDS011;11206;57.696;11.944;2022-07-09T10:12:33;2.50;;;0.20;;
22078;SDS011;11206;57.696;11.944;2022-07-09T10:15:00;1.00;;;0.20;;
22078;SDS011;11206;57.696;11.944;2022-07-09T10:17:26;3.22;;;0.28;;
22078;SDS011;11206;57.696;11.944;2022-07-09T10:19:56;3.60;;;0.10;;
22078;SDS011;11206;57.696;11.944;2022-07-09T10:25:01;3.50;;;0.25;;
22078;SDS011;11206;57.696;11.944;2022-07-09T10:27:27;3.15;;;0.20;;
22078;SDS011;11206;57.696;11.944;2022-07-09T10:29:57;1.38;;;0.15;;
22078;SDS011;11206;57.696;11.944;2022-07-09T10:32:24;1.70;;;0.20;;
22078;SDS011;11206;57.696;11.944;2022-07-09T10:37:18;2.78;;;0.05;;
22078;SDS011;11206;57.696;11.944;2022-07-09T10:39:55;2.03;;;0.10;;
22078;SDS011;11206;57.696;11.944;2022-07-09T10:42:21;0.55;;;0.10;;
22078;SDS011;11206;57.696;11.944;2022-07-09T10:44:50;2.38;;;0.20;;
22078;SDS011;11206;57.696;11.944;2022-07-09T10:47:18;2.20;;;0.25;;
22078;SDS011;11206;57.696;11.944;2022-07-09T10:49:44;1.20;;;0.05;;
22078;SDS011;11206;57.696;11.944;2022-07-09T10:52:10;1.65;;;0.13;;
22078;SDS011;11206;57.696;11.944;2022-07-09T10:54:46;1.48;;;0.30;;
22078;SDS011;11206;57.696;11.944;2022-07-09T10:57:13;0.77;;;0.10;;
22078;SDS011;11206;57.696;11.944;2022-07-09T10:59:44;1.75;;;0.28;;
22078;SDS011;11206;57.696;11.944;2022-07-09T11:02:20;3.03;;;0.22;;
22078;SDS011;11206;57.696;11.944;2022-07-09T11:04:50;0.15;;;0.08;;
22078;SDS011;11206;57.696;11.944;2022-07-09T11:07:20;1.30;;;0.10;;
22078;SDS011;11206;57.696;11.944;2022-07-09T11:09:47;2.08;;;0.25;;
22078;SDS011;11206;57.696;11.944;2022-07-09T11:12:17;3.65;;;0.20;;
22078;SDS011;11206;57.696;11.944;2022-07-09T11:14:44;2.95;;;0.30;;
22078;SDS011;11206;57.696;11.944;2022-07-09T11:17:13;0.55;;;0.00;;
22078;SDS011;11206;57.696;11.944;2022-07-09T11:19:39;1.35;;;0.30;;
22078;SDS011;11206;57.696;11.944;2022-07-09T11:22:06;4.50;;;0.20;;
22078;SDS011;11206;57.696;11.944;2022-07-09T11:24:32;1.65;;;0.00;;
22078;SDS011;11206;57.696;11.944;2022-07-09T11:27:06;2.67;;;0.00;;
22078;SDS011;11206;57.696;11.944;2022-07-09T11:29:33;0.30;;;0.10;;
22078;SDS011;11206;57.696;11.944;2022-07-09T11:31:59;2.08;;;0.10;;
22078;SDS011;11206;57.696;11.944;2022-07-09T11:34:27;1.40;;;0.13;;
22078;SDS011;11206;57.696;11.944;2022-07-09T11:36:55;4.85;;;0.40;;
22078;SDS011;11206;57.696;11.944;2022-07-09T11:39:25;0.85;;;0.10;;
22078;SDS011;11206;57.696;11.944;2022-07-09T11:41:52;1.38;;;0.10;;
22078;SDS011;11206;57.696;11.944;2022-07-09T11:44:28;2.55;;;0.20;;
22078;SDS011;11206;57.696;11.944;2022-07-09T11:47:10;3.08;;;0.20;;
22078;SDS011;11206;57.696;11.944;2022-07-09T11:49:42;1.30;;;0.17;;
22078;SDS011;11206;57.696;11.944;2022-07-09T11:52:19;3.15;;;0.13;;
22078;SDS011;11206;57.696;11.944;2022-07-09T11:57:20;1.65;;;0.10;;
22078;SDS011;11206;57.696;11.944;2022-07-09T11:59:47;0.55;;;0.15;;
22078;SDS011;11206;57.696;11.944;2022-07-09T12:02:41;0.00;;;0.00;;
22078;SDS011;11206;57.696;11.944;2022-07-09T12:05:08;0.47;;;0.00;;
22078;SDS011;11206;57.696;11.944;2022-07-09T12:07:34;5.05;;;0.17;;
22078;SDS011;11206;57.696;11.944;2022-07-09T12:10:08;0.98;;;0.20;;
22078;SDS011;11206;57.696;11.944;2022-07-09T12:12:35;1.70;;;0.10;;
22078;SDS011;11206;57.696;11.944;2022-07-09T12:15:02;0.30;;;0.00;;
22078;SDS011;11206;57.696;11.944;2022-07-09T12:17:29;1.90;;;0.13;;
22078;SDS011;11206;57.696;11.944;2022-07-09T12:19:56;0.15;;;0.10;;
22078;SDS011;11206;57.696;11.944;2022-07-09T12:22:23;0.00;;;0.00;;
22078;SDS011;11206;57.696;11.944;2022-07-09T12:24:50;0.50;;;0.10;;
22078;SDS011;11206;57.696;11.944;2022-07-09T12:27:16;0.00;;;0.00;;
22078;SDS011;11206;57.696;11.944;2022-07-09T12:29:42;0.32;;;0.10;;
22078;SDS011;11206;57.696;11.944;2022-07-09T12:32:09;1.10;;;0.10;;
22078;SDS011;11206;57.696;11.944;2022-07-09T12:34:35;1.88;;;0.00;;
22078;SDS011;11206;57.696;11.944;2022-07-09T12:37:01;0.15;;;0.10;;
22078;SDS011;11206;57.696;11.944;2022-07-09T12:39:27;1.35;;;0.10;;
22078;SDS011;11206;57.696;11.944;2022-07-09T12:41:54;0.93;;;0.00;;
22078;SDS011;11206;57.696;11.944;2022-07-09T12:44:20;0.90;;;0.03;;
22078;SDS011;11206;57.696;11.944;2022-07-09T12:46:46;2.13;;;0.10;;
22078;SDS011;11206;57.696;11.944;2022-07-09T12:49:12;0.10;;;0.00;;
22078;SDS011;11206;57.696;11.944;2022-07-09T12:51:38;0.50;;;0.10;;
22078;SDS011;11206;57.696;11.944;2022-07-09T12:54:04;2.92;;;0.10;;
22078;SDS011;11206;57.696;11.944;2022-07-09T12:56:30;0.32;;;0.10;;
22078;SDS011;11206;57.696;11.944;2022-07-09T12:58:56;4.93;;;0.40;;
22078;SDS011;11206;57.696;11.944;2022-07-09T13:01:22;3.30;;;0.10;;
22078;SDS011;11206;57.696;11.944;2022-07-09T13:03:48;0.95;;;0.03;;
22078;SDS011;11206;57.696;11.944;2022-07-09T13:06:15;0.28;;;0.00;;
22078;SDS011;11206;57.696;11.944;2022-07-09T13:08:56;0.88;;;0.13;;
22078;SDS011;11206;57.696;11.944;2022-07-09T13:11:22;0.82;;;0.20;;
22078;SDS011;11206;57.696;11.944;2022-07-09T13:13:49;0.00;;;0.00;;
22078;SDS011;11206;57.696;11.944;2022-07-09T13:16:15;0.70;;;0.10;;
22078;SDS011;11206;57.696;11.944;2022-07-09T13:18:42;2.50;;;0.32;;
22078;SDS011;11206;57.696;11.944;2022-07-09T13:21:08;0.25;;;0.00;;
22078;SDS011;11206;57.696;11.944;2022-07-09T13:23:34;0.38;;;0.00;;
22078;SDS011;11206;57.696;11.944;2022-07-09T13:26:00;2.08;;;0.10;;
22078;SDS011;11206;57.696;11.944;2022-07-09T13:28:26;7.07;;;0.40;;
22078;SDS011;11206;57.696;11.944;2022-07-09T13:30:52;0.52;;;0.10;;
22078;SDS011;11206;57.696;11.944;2022-07-09T13:33:18;1.63;;;0.20;;
22078;SDS011;11206;57.696;11.944;2022-07-09T13:35:44;1.30;;;0.13;;
22078;SDS011;11206;57.696;11.944;2022-07-09T13:38:13;0.05;;;0.05;;
22078;SDS011;11206;57.696;11.944;2022-07-09T13:40:40;0.88;;;0.00;;
22078;SDS011;11206;57.696;11.944;2022-07-09T13:43:06;0.55;;;0.10;;
22078;SDS011;11206;57.696;11.944;2022-07-09T13:45:32;0.75;;;0.15;;
22078;SDS011;11206;57.696;11.944;2022-07-09T13:47:58;0.57;;;0.00;;
22078;SDS011;11206;57.696;11.944;2022-07-09T13:50:25;0.95;;;0.10;;
22078;SDS011;11206;57.696;11.944;2022-07-09T13:52:51;0.60;;;0.10;;
22078;SDS011;11206;57.696;11.944;2022-07-09T13:55:17;1.02;;;0.10;;
22078;SDS011;11206;57.696;11.944;2022-07-09T13:57:43;0.55;;;0.00;;
22078;SDS011;11206;57.696;11.944;2022-07-09T14:00:10;0.10;;;0.00;;
22078;SDS011;11206;57.696;11.944;2022-07-09T14:02:36;0.43;;;0.00;;
22078;SDS011;11206;57.696;11.944;2022-07-09T14:05:03;0.90;;;0.10;;
22078;SDS011;11206;57.696;11.944;2022-07-09T14:07:29;0.35;;;0.10;;
22078;SDS011;11206;57.696;11.944;2022-07-09T14:09:55;0.08;;;0.00;;
22078;SDS011;11206;57.696;11.944;2022-07-09T14:12:22;0.00;;;0.00;;
22078;SDS011;11206;57.696;11.944;2022-07-09T14:14:52;2.05;;;0.20;;
22078;SDS011;11206;57.696;11.944;2022-07-09T14:17:18;1.38;;;0.15;;
22078;SDS011;11206;57.696;11.944;2022-07-09T14:19:44;1.35;;;0.13;;
22078;SDS011;11206;57.696;11.944;2022-07-09T14:22:11;0.98;;;0.30;;
22078;SDS011;11206;57.696;11.944;2022-07-09T14:24:37;3.33;;;0.20;;
22078;SDS011;11206;57.696;11.944;2022-07-09T14:27:04;1.15;;;0.22;;
22078;SDS011;11206;57.696;11.944;2022-07-09T14:29:30;3.30;;;0.20;;
22078;SDS011;11206;57.696;11.944;2022-07-09T14:31:56;5.03;;;0.40;;
22078;SDS011;11206;57.696;11.944;2022-07-09T14:34:22;2.33;;;0.30;;
22078;SDS011;11206;57.696;11.944;2022-07-09T14:36:49;2.17;;;0.22;;
22078;SDS011;11206;57.696;11.944;2022-07-09T14:39:16;0.75;;;0.10;;
22078;SDS011;11206;57.696;11.944;2022-07-09T14:41:42;1.58;;;0.30;;
22078;SDS011;11206;57.696;11.944;2022-07-09T14:44:14;2.08;;;0.10;;
22078;SDS011;11206;57.696;11.944;2022-07-09T14:47:00;0.93;;;0.10;;